sensor_id;sensor_type;location;lat;lon;timestamp;temperature;humidity
2571;DHT22;1295;51.130;6.732;2023-03-14T00:00:24;11.70;99.90
2571;DHT22;1295;51.130;6.732;2023-03-14T00:02:53;11.60;99.90
2571;DHT22;1295;51.130;6.732;2023-03-14T00:05:19;11.70;99.90
2571;DHT22;1295;51.130;6.732;2023-03-14T00:07:50;11.70;99.90
2571;DHT22;1295;51.130;6.732;2023-03-14T00:10:16;11.70;99.90
2571;DHT22;1295;51.130;6.732;2023-03-14T00:12:42;11.80;99.90
2571;DHT22;1295;51.130;6.732;2023-03-14T00:15:08;11.90;99.90
2571;DHT22;1295;51.130;6.732;2023-03-14T00:17:34;11.90;99.90
2571;DHT22;1295;51.130;6.732;2023-03-14T00:20:00;12.00;99.90
2571;DHT22;1295;51.130;6.732;2023-03-14T00:22:26;12.00;99.90
2571;DHT22;1295;51.130;6.732;2023-03-14T00:24:53;12.10;99.90
2571;DHT22;1295;51.130;6.732;2023-03-14T00:27:18;12.10;99.90
2571;DHT22;1295;51.130;6.732;2023-03-14T00:29:44;12.20;99.90
2571;DHT22;1295;51.130;6.732;2023-03-14T00:32:10;12.20;99.90
2571;DHT22;1295;51.130;6.732;2023-03-14T00:34:36;12.20;99.90
2571;DHT22;1295;51.130;6.732;2023-03-14T00:37:02;12.20;99.90
2571;DHT22;1295;51.130;6.732;2023-03-14T00:39:27;12.20;99.90
2571;DHT22;1295;51.130;6.732;2023-03-14T00:41:53;12.00;99.90
2571;DHT22;1295;51.130;6.732;2023-03-14T00:44:19;11.80;99.90
2571;DHT22;1295;51.130;6.732;2023-03-14T00:46:44;11.70;99.90
2571;DHT22;1295;51.130;6.732;2023-03-14T00:49:10;11.60;99.90
2571;DHT22;1295;51.130;6.732;2023-03-14T00:51:36;11.60;99.90
2571;DHT22;1295;51.130;6.732;2023-03-14T00:54:02;11.60;99.90
2571;DHT22;1295;51.130;6.732;2023-03-14T00:56:27;11.20;99.90
2571;DHT22;1295;51.130;6.732;2023-03-14T00:58:54;11.50;99.90
2571;DHT22;1295;51.130;6.732;2023-03-14T01:01:19;11.40;99.90
2571;DHT22;1295;51.130;6.732;2023-03-14T01:03:45;11.30;99.90
2571;DHT22;1295;51.130;6.732;2023-03-14T01:06:13;11.30;99.90
2571;DHT22;1295;51.130;6.732;2023-03-14T01:08:38;11.50;99.90
2571;DHT22;1295;51.130;6.732;2023-03-14T01:11:07;11.50;99.90
2571;DHT22;1295;51.130;6.732;2023-03-14T01:13:32;11.00;99.90
2571;DHT22;1295;51.130;6.732;2023-03-14T01:16:03;11.00;99.90
2571;DHT22;1295;51.130;6.732;2023-03-14T01:18:28;11.30;99.90
2571;DHT22;1295;51.130;6.732;2023-03-14T01:20:54;11.10;99.90
2571;DHT22;1295;51.130;6.732;2023-03-14T01:23:20;11.30;99.90
2571;DHT22;1295;51.130;6.732;2023-03-14T01:25:45;11.40;99.90
2571;DHT22;1295;51.130;6.732;2023-03-14T01:28:11;11.60;99.90
2571;DHT22;1295;51.130;6.732;2023-03-14T01:30:37;11.10;99.90
2571;DHT22;1295;51.130;6.732;2023-03-14T01:33:03;11.10;99.90
2571;DHT22;1295;51.130;6.732;2023-03-14T01:35:29;11.30;99.90
2571;DHT22;1295;51.130;6.732;2023-03-14T01:37:55;11.50;99.90
2571;DHT22;1295;51.130;6.732;2023-03-14T01:40:20;11.60;99.90
2571;DHT22;1295;51.130;6.732;2023-03-14T01:42:53;11.30;99.90
2571;DHT22;1295;51.130;6.732;2023-03-14T01:45:52;11.30;99.90
2571;DHT22;1295;51.130;6.732;2023-03-14T01:47:43;11.30;99.90
2571;DHT22;1295;51.130;6.732;2023-03-14T01:50:10;11.40;99.90
2571;DHT22;1295;51.130;6.732;2023-03-14T01:52:36;11.40;99.90
2571;DHT22;1295;51.130;6.732;2023-03-14T01:55:06;11.10;99.90
2571;DHT22;1295;51.130;6.732;2023-03-14T01:57:33;11.30;99.90
2571;DHT22;1295;51.130;6.732;2023-03-14T01:59:59;11.20;99.90
2571;DHT22;1295;51.130;6.732;2023-03-14T02:02:24;11.20;99.90
2571;DHT22;1295;51.130;6.732;2023-03-14T02:04:49;11.40;99.90
2571;DHT22;1295;51.130;6.732;2023-03-14T02:07:17;11.40;99.90
2571;DHT22;1295;51.130;6.732;2023-03-14T02:09:41;11.60;99.90
2571;DHT22;1295;51.130;6.732;2023-03-14T02:12:08;11.20;99.90
2571;DHT22;1295;51.130;6.732;2023-03-14T02:14:33;10.90;99.90
2571;DHT22;1295;51.130;6.732;2023-03-14T02:16:58;10.40;99.90
2571;DHT22;1295;51.130;6.732;2023-03-14T02:19:27;10.40;99.90
2571;DHT22;1295;51.130;6.732;2023-03-14T02:21:56;10.50;99.90
2571;DHT22;1295;51.130;6.732;2023-03-14T02:24:49;10.40;99.90
2571;DHT22;1295;51.130;6.732;2023-03-14T02:27:16;10.30;99.90
2571;DHT22;1295;51.130;6.732;2023-03-14T02:29:44;10.80;99.90
2571;DHT22;1295;51.130;6.732;2023-03-14T02:32:06;10.60;99.90
2571;DHT22;1295;51.130;6.732;2023-03-14T02:34:32;10.40;99.90
2571;DHT22;1295;51.130;6.732;2023-03-14T02:36:57;10.70;99.90
2571;DHT22;1295;51.130;6.732;2023-03-14T02:39:26;11.10;99.90
2571;DHT22;1295;51.130;6.732;2023-03-14T02:41:50;11.00;99.90
2571;DHT22;1295;51.130;6.732;2023-03-14T02:44:17;10.90;99.90
2571;DHT22;1295;51.130;6.732;2023-03-14T02:46:43;11.10;99.90
2571;DHT22;1295;51.130;6.732;2023-03-14T02:49:10;11.10;99.90
2571;DHT22;1295;51.130;6.732;2023-03-14T02:51:36;10.80;99.90
2571;DHT22;1295;51.130;6.732;2023-03-14T02:54:01;10.80;99.90
2571;DHT22;1295;51.130;6.732;2023-03-14T02:56:27;10.60;99.90
2571;DHT22;1295;51.130;6.732;2023-03-14T02:58:53;10.70;99.90
2571;DHT22;1295;51.130;6.732;2023-03-14T03:01:18;10.90;99.90
2571;DHT22;1295;51.130;6.732;2023-03-14T03:03:49;10.60;99.90
2571;DHT22;1295;51.130;6.732;2023-03-14T03:06:15;10.50;99.90
2571;DHT22;1295;51.130;6.732;2023-03-14T03:08:40;10.40;99.90
2571;DHT22;1295;51.130;6.732;2023-03-14T03:11:07;10.40;99.90
2571;DHT22;1295;51.130;6.732;2023-03-14T03:13:34;10.40;99.90
2571;DHT22;1295;51.130;6.732;2023-03-14T03:16:00;10.60;99.90
2571;DHT22;1295;51.130;6.732;2023-03-14T03:18:25;10.50;99.90
2571;DHT22;1295;51.130;6.732;2023-03-14T03:20:51;10.60;99.90
2571;DHT22;1295;51.130;6.732;2023-03-14T03:23:17;10.70;99.90
2571;DHT22;1295;51.130;6.732;2023-03-14T03:25:47;10.90;99.90
2571;DHT22;1295;51.130;6.732;2023-03-14T03:28:08;11.00;99.90
2571;DHT22;1295;51.130;6.732;2023-03-14T03:30:37;11.00;99.90
2571;DHT22;1295;51.130;6.732;2023-03-14T03:33:02;11.00;99.90
2571;DHT22;1295;51.130;6.732;2023-03-14T03:35:28;10.90;99.90
2571;DHT22;1295;51.130;6.732;2023-03-14T03:37:54;10.80;99.90
2571;DHT22;1295;51.130;6.732;2023-03-14T03:40:19;11.00;99.90
2571;DHT22;1295;51.130;6.732;2023-03-14T03:42:45;11.00;99.90
2571;DHT22;1295;51.130;6.732;2023-03-14T03:45:11;11.00;99.90
2571;DHT22;1295;51.130;6.732;2023-03-14T03:47:36;10.90;99.90
2571;DHT22;1295;51.130;6.732;2023-03-14T03:50:04;11.30;99.90
2571;DHT22;1295;51.130;6.732;2023-03-14T03:52:29;11.30;99.90
2571;DHT22;1295;51.130;6.732;2023-03-14T03:54:56;10.70;99.90
2571;DHT22;1295;51.130;6.732;2023-03-14T03:57:22;10.70;99.90
2571;DHT22;1295;51.130;6.732;2023-03-14T03:59:47;10.40;99.90
2571;DHT22;1295;51.130;6.732;2023-03-14T04:02:13;10.90;99.90
2571;DHT22;1295;51.130;6.732;2023-03-14T04:04:39;11.00;99.90
2571;DHT22;1295;51.130;6.732;2023-03-14T04:07:04;11.30;99.90
2571;DHT22;1295;51.130;6.732;2023-03-14T04:09:30;11.50;99.90
2571;DHT22;1295;51.130;6.732;2023-03-14T04:11:56;11.50;99.90
2571;DHT22;1295;51.130;6.732;2023-03-14T04:14:23;11.20;99.90
2571;DHT22;1295;51.130;6.732;2023-03-14T04:16:49;11.20;99.90
2571;DHT22;1295;51.130;6.732;2023-03-14T04:19:20;11.30;99.90
2571;DHT22;1295;51.130;6.732;2023-03-14T04:21:45;11.50;99.90
2571;DHT22;1295;51.130;6.732;2023-03-14T04:24:11;11.30;99.90
2571;DHT22;1295;51.130;6.732;2023-03-14T04:26:36;10.50;99.90
2571;DHT22;1295;51.130;6.732;2023-03-14T04:29:02;10.20;99.90
2571;DHT22;1295;51.130;6.732;2023-03-14T04:31:27;10.20;99.90
2571;DHT22;1295;51.130;6.732;2023-03-14T04:33:54;10.00;99.90
2571;DHT22;1295;51.130;6.732;2023-03-14T04:36:20;10.00;99.90
2571;DHT22;1295;51.130;6.732;2023-03-14T04:38:45;9.90;99.90
2571;DHT22;1295;51.130;6.732;2023-03-14T04:41:11;10.10;99.90
2571;DHT22;1295;51.130;6.732;2023-03-14T04:43:37;10.10;99.90
2571;DHT22;1295;51.130;6.732;2023-03-14T04:46:03;10.10;99.90
2571;DHT22;1295;51.130;6.732;2023-03-14T04:48:28;10.10;99.90
2571;DHT22;1295;51.130;6.732;2023-03-14T04:50:54;10.20;99.90
2571;DHT22;1295;51.130;6.732;2023-03-14T04:53:20;10.20;99.90
2571;DHT22;1295;51.130;6.732;2023-03-14T04:55:50;10.30;99.90
2571;DHT22;1295;51.130;6.732;2023-03-14T04:58:15;10.30;99.90
2571;DHT22;1295;51.130;6.732;2023-03-14T05:00:41;10.10;99.90
2571;DHT22;1295;51.130;6.732;2023-03-14T05:03:07;10.10;99.90
2571;DHT22;1295;51.130;6.732;2023-03-14T05:05:32;10.20;99.90
2571;DHT22;1295;51.130;6.732;2023-03-14T05:07:58;10.20;99.90
2571;DHT22;1295;51.130;6.732;2023-03-14T05:10:24;10.20;99.90
2571;DHT22;1295;51.130;6.732;2023-03-14T05:12:49;10.20;99.90
2571;DHT22;1295;51.130;6.732;2023-03-14T05:15:15;10.30;99.90
2571;DHT22;1295;51.130;6.732;2023-03-14T05:17:41;10.30;99.90
2571;DHT22;1295;51.130;6.732;2023-03-14T05:20:08;10.40;99.90
2571;DHT22;1295;51.130;6.732;2023-03-14T05:22:34;10.20;99.90
2571;DHT22;1295;51.130;6.732;2023-03-14T05:25:01;10.20;99.90
2571;DHT22;1295;51.130;6.732;2023-03-14T05:27:27;10.20;99.90
2571;DHT22;1295;51.130;6.732;2023-03-14T05:29:52;10.20;99.90
2571;DHT22;1295;51.130;6.732;2023-03-14T05:32:18;10.10;99.90
2571;DHT22;1295;51.130;6.732;2023-03-14T05:34:44;10.30;99.90
2571;DHT22;1295;51.130;6.732;2023-03-14T05:37:09;10.30;99.90
2571;DHT22;1295;51.130;6.732;2023-03-14T05:39:35;10.20;99.90
2571;DHT22;1295;51.130;6.732;2023-03-14T05:42:01;10.20;99.90
2571;DHT22;1295;51.130;6.732;2023-03-14T05:44:27;10.20;99.90
2571;DHT22;1295;51.130;6.732;2023-03-14T05:46:53;10.20;99.90
2571;DHT22;1295;51.130;6.732;2023-03-14T05:49:18;10.50;99.90
2571;DHT22;1295;51.130;6.732;2023-03-14T05:51:45;10.70;99.90
2571;DHT22;1295;51.130;6.732;2023-03-14T05:54:10;10.70;99.90
2571;DHT22;1295;51.130;6.732;2023-03-14T05:56:36;10.50;99.90
2571;DHT22;1295;51.130;6.732;2023-03-14T05:59:02;10.50;99.90
2571;DHT22;1295;51.130;6.732;2023-03-14T06:01:28;10.70;99.90
2571;DHT22;1295;51.130;6.732;2023-03-14T06:03:53;10.80;99.90
2571;DHT22;1295;51.130;6.732;2023-03-14T06:06:19;10.60;99.90
2571;DHT22;1295;51.130;6.732;2023-03-14T06:08:45;10.60;99.90
2571;DHT22;1295;51.130;6.732;2023-03-14T06:11:11;10.50;99.90
2571;DHT22;1295;51.130;6.732;2023-03-14T06:13:37;10.50;99.90
2571;DHT22;1295;51.130;6.732;2023-03-14T06:16:03;10.60;99.90
2571;DHT22;1295;51.130;6.732;2023-03-14T06:18:29;10.60;99.90
2571;DHT22;1295;51.130;6.732;2023-03-14T06:20:55;10.60;99.90
2571;DHT22;1295;51.130;6.732;2023-03-14T06:23:21;10.60;99.90
2571;DHT22;1295;51.130;6.732;2023-03-14T06:25:46;10.60;99.90
2571;DHT22;1295;51.130;6.732;2023-03-14T06:28:12;10.60;99.90
2571;DHT22;1295;51.130;6.732;2023-03-14T06:30:38;10.70;99.90
2571;DHT22;1295;51.130;6.732;2023-03-14T06:33:03;10.70;99.90
2571;DHT22;1295;51.130;6.732;2023-03-14T06:35:29;10.70;99.90
2571;DHT22;1295;51.130;6.732;2023-03-14T06:37:55;10.80;99.90
2571;DHT22;1295;51.130;6.732;2023-03-14T06:40:21;10.70;99.90
2571;DHT22;1295;51.130;6.732;2023-03-14T06:42:47;10.80;99.90
2571;DHT22;1295;51.130;6.732;2023-03-14T06:45:12;10.70;99.90
2571;DHT22;1295;51.130;6.732;2023-03-14T06:47:38;10.70;99.90
2571;DHT22;1295;51.130;6.732;2023-03-14T06:50:05;10.70;99.90
2571;DHT22;1295;51.130;6.732;2023-03-14T06:52:31;10.50;99.90
2571;DHT22;1295;51.130;6.732;2023-03-14T06:54:57;10.60;99.90
2571;DHT22;1295;51.130;6.732;2023-03-14T06:57:23;10.50;99.90
2571;DHT22;1295;51.130;6.732;2023-03-14T06:59:48;10.60;99.90
2571;DHT22;1295;51.130;6.732;2023-03-14T07:02:14;10.70;99.90
2571;DHT22;1295;51.130;6.732;2023-03-14T07:04:40;10.70;99.90
2571;DHT22;1295;51.130;6.732;2023-03-14T07:07:06;10.80;99.90
2571;DHT22;1295;51.130;6.732;2023-03-14T07:09:32;10.80;99.90
2571;DHT22;1295;51.130;6.732;2023-03-14T07:11:57;10.80;99.90
2571;DHT22;1295;51.130;6.732;2023-03-14T07:14:23;10.90;99.90
2571;DHT22;1295;51.130;6.732;2023-03-14T07:16:49;10.80;99.90
2571;DHT22;1295;51.130;6.732;2023-03-14T07:19:26;10.80;99.90
2571;DHT22;1295;51.130;6.732;2023-03-14T07:21:51;10.80;99.90
2571;DHT22;1295;51.130;6.732;2023-03-14T07:24:17;10.80;99.90
2571;DHT22;1295;51.130;6.732;2023-03-14T07:26:43;10.90;99.90
2571;DHT22;1295;51.130;6.732;2023-03-14T07:29:08;10.90;99.90
2571;DHT22;1295;51.130;6.732;2023-03-14T07:31:34;10.80;99.90
2571;DHT22;1295;51.130;6.732;2023-03-14T07:34:00;10.80;99.90
2571;DHT22;1295;51.130;6.732;2023-03-14T07:36:26;11.00;99.90
2571;DHT22;1295;51.130;6.732;2023-03-14T07:38:52;11.00;99.90
2571;DHT22;1295;51.130;6.732;2023-03-14T07:41:18;11.00;99.90
2571;DHT22;1295;51.130;6.732;2023-03-14T07:43:43;11.00;99.90
2571;DHT22;1295;51.130;6.732;2023-03-14T07:46:09;10.80;99.90
2571;DHT22;1295;51.130;6.732;2023-03-14T07:48:35;10.90;99.90
2571;DHT22;1295;51.130;6.732;2023-03-14T07:51:00;10.90;99.90
2571;DHT22;1295;51.130;6.732;2023-03-14T07:53:26;10.90;99.90
2571;DHT22;1295;51.130;6.732;2023-03-14T07:55:52;10.90;99.90
2571;DHT22;1295;51.130;6.732;2023-03-14T07:58:17;11.00;99.90
2571;DHT22;1295;51.130;6.732;2023-03-14T08:00:43;11.00;99.90
2571;DHT22;1295;51.130;6.732;2023-03-14T08:03:08;11.00;99.90
2571;DHT22;1295;51.130;6.732;2023-03-14T08:05:35;11.00;99.90
2571;DHT22;1295;51.130;6.732;2023-03-14T08:08:01;11.00;99.90
2571;DHT22;1295;51.130;6.732;2023-03-14T08:10:27;11.00;99.90
2571;DHT22;1295;51.130;6.732;2023-03-14T08:12:54;11.00;99.90
2571;DHT22;1295;51.130;6.732;2023-03-14T08:15:19;11.00;99.90
2571;DHT22;1295;51.130;6.732;2023-03-14T08:17:44;11.00;99.90
2571;DHT22;1295;51.130;6.732;2023-03-14T08:20:10;11.00;99.90
2571;DHT22;1295;51.130;6.732;2023-03-14T08:22:36;11.10;99.90
2571;DHT22;1295;51.130;6.732;2023-03-14T08:25:02;11.10;99.90
2571;DHT22;1295;51.130;6.732;2023-03-14T08:27:28;11.10;99.90
2571;DHT22;1295;51.130;6.732;2023-03-14T08:29:53;11.20;99.90
2571;DHT22;1295;51.130;6.732;2023-03-14T08:32:19;11.20;99.90
2571;DHT22;1295;51.130;6.732;2023-03-14T08:34:45;11.10;99.90
2571;DHT22;1295;51.130;6.732;2023-03-14T08:37:10;11.00;99.90
2571;DHT22;1295;51.130;6.732;2023-03-14T08:39:36;11.10;99.90
2571;DHT22;1295;51.130;6.732;2023-03-14T08:42:02;11.00;99.90
2571;DHT22;1295;51.130;6.732;2023-03-14T08:44:28;11.10;99.90
2571;DHT22;1295;51.130;6.732;2023-03-14T08:46:53;11.10;99.90
2571;DHT22;1295;51.130;6.732;2023-03-14T08:49:19;11.10;99.90
2571;DHT22;1295;51.130;6.732;2023-03-14T08:51:45;11.20;99.90
2571;DHT22;1295;51.130;6.732;2023-03-14T08:54:10;11.20;99.90
2571;DHT22;1295;51.130;6.732;2023-03-14T08:56:36;11.10;99.90
2571;DHT22;1295;51.130;6.732;2023-03-14T08:59:02;11.00;99.90
2571;DHT22;1295;51.130;6.732;2023-03-14T09:01:28;11.10;99.90
2571;DHT22;1295;51.130;6.732;2023-03-14T09:03:54;11.10;99.90
2571;DHT22;1295;51.130;6.732;2023-03-14T09:06:20;11.10;99.90
2571;DHT22;1295;51.130;6.732;2023-03-14T09:08:56;11.00;99.90
2571;DHT22;1295;51.130;6.732;2023-03-14T09:11:22;11.00;99.90
2571;DHT22;1295;51.130;6.732;2023-03-14T09:13:47;11.00;99.90
2571;DHT22;1295;51.130;6.732;2023-03-14T09:16:13;10.90;99.90
2571;DHT22;1295;51.130;6.732;2023-03-14T09:18:39;10.90;99.90
2571;DHT22;1295;51.130;6.732;2023-03-14T09:21:06;10.50;99.90
2571;DHT22;1295;51.130;6.732;2023-03-14T09:23:32;10.70;99.90
2571;DHT22;1295;51.130;6.732;2023-03-14T09:25:58;10.60;99.90
2571;DHT22;1295;51.130;6.732;2023-03-14T09:28:24;10.50;99.90
2571;DHT22;1295;51.130;6.732;2023-03-14T09:30:50;10.50;99.90
2571;DHT22;1295;51.130;6.732;2023-03-14T09:33:16;10.50;99.90
2571;DHT22;1295;51.130;6.732;2023-03-14T09:35:41;10.60;99.90
2571;DHT22;1295;51.130;6.732;2023-03-14T09:38:07;10.60;99.90
2571;DHT22;1295;51.130;6.732;2023-03-14T09:40:34;10.70;99.90
2571;DHT22;1295;51.130;6.732;2023-03-14T09:42:59;10.80;99.90
2571;DHT22;1295;51.130;6.732;2023-03-14T09:45:27;10.60;99.90
2571;DHT22;1295;51.130;6.732;2023-03-14T09:47:52;10.60;99.90
2571;DHT22;1295;51.130;6.732;2023-03-14T09:50:18;10.80;99.90
2571;DHT22;1295;51.130;6.732;2023-03-14T09:52:45;10.70;99.90
2571;DHT22;1295;51.130;6.732;2023-03-14T09:55:15;10.70;99.90
2571;DHT22;1295;51.130;6.732;2023-03-14T09:57:40;10.40;99.90
2571;DHT22;1295;51.130;6.732;2023-03-14T10:00:13;10.80;99.90
2571;DHT22;1295;51.130;6.732;2023-03-14T10:02:37;10.50;99.90
2571;DHT22;1295;51.130;6.732;2023-03-14T10:05:05;10.50;99.90
2571;DHT22;1295;51.130;6.732;2023-03-14T10:07:30;10.50;99.90
2571;DHT22;1295;51.130;6.732;2023-03-14T10:09:55;10.20;99.90
2571;DHT22;1295;51.130;6.732;2023-03-14T10:12:31;10.50;99.90
2571;DHT22;1295;51.130;6.732;2023-03-14T10:14:57;10.50;99.90
2571;DHT22;1295;51.130;6.732;2023-03-14T10:17:23;10.40;99.90
2571;DHT22;1295;51.130;6.732;2023-03-14T10:19:59;10.40;99.90
2571;DHT22;1295;51.130;6.732;2023-03-14T10:22:27;10.20;99.90
2571;DHT22;1295;51.130;6.732;2023-03-14T10:24:53;10.40;99.90
2571;DHT22;1295;51.130;6.732;2023-03-14T10:27:19;10.60;99.90
2571;DHT22;1295;51.130;6.732;2023-03-14T10:29:52;10.70;99.90
2571;DHT22;1295;51.130;6.732;2023-03-14T10:32:19;10.60;99.90
2571;DHT22;1295;51.130;6.732;2023-03-14T10:34:44;10.40;99.90
2571;DHT22;1295;51.130;6.732;2023-03-14T10:37:17;10.60;99.90
2571;DHT22;1295;51.130;6.732;2023-03-14T10:39:45;10.20;99.90
2571;DHT22;1295;51.130;6.732;2023-03-14T10:42:44;10.10;99.90
2571;DHT22;1295;51.130;6.732;2023-03-14T10:44:55;10.30;99.90
2571;DHT22;1295;51.130;6.732;2023-03-14T10:47:19;10.20;99.90
2571;DHT22;1295;51.130;6.732;2023-03-14T10:49:45;10.20;99.90
2571;DHT22;1295;51.130;6.732;2023-03-14T10:52:23;10.20;99.90
2571;DHT22;1295;51.130;6.732;2023-03-14T10:54:57;10.30;99.90
2571;DHT22;1295;51.130;6.732;2023-03-14T10:57:27;10.00;99.90
2571;DHT22;1295;51.130;6.732;2023-03-14T10:59:53;10.30;99.90
2571;DHT22;1295;51.130;6.732;2023-03-14T11:05:15;10.30;99.90
2571;DHT22;1295;51.130;6.732;2023-03-14T11:07:39;9.80;99.90
2571;DHT22;1295;51.130;6.732;2023-03-14T11:13:07;10.50;99.90
2571;DHT22;1295;51.130;6.732;2023-03-14T11:16:06;10.60;99.90
2571;DHT22;1295;51.130;6.732;2023-03-14T11:21:13;10.60;99.90
2571;DHT22;1295;51.130;6.732;2023-03-14T11:27:21;10.60;99.90
2571;DHT22;1295;51.130;6.732;2023-03-14T11:28:57;10.70;99.90
2571;DHT22;1295;51.130;6.732;2023-03-14T11:31:27;10.60;99.90
2571;DHT22;1295;51.130;6.732;2023-03-14T11:36:33;10.60;99.90
2571;DHT22;1295;51.130;6.732;2023-03-14T11:38:59;10.70;99.90
2571;DHT22;1295;51.130;6.732;2023-03-14T11:41:33;10.60;99.90
2571;DHT22;1295;51.130;6.732;2023-03-14T11:44:01;10.60;99.90
2571;DHT22;1295;51.130;6.732;2023-03-14T11:46:28;10.70;99.90
2571;DHT22;1295;51.130;6.732;2023-03-14T11:51:34;10.60;99.90
2571;DHT22;1295;51.130;6.732;2023-03-14T11:54:11;10.60;99.90
2571;DHT22;1295;51.130;6.732;2023-03-14T11:56:46;10.60;99.90
2571;DHT22;1295;51.130;6.732;2023-03-14T11:59:27;10.50;99.90
2571;DHT22;1295;51.130;6.732;2023-03-14T12:01:57;10.50;99.90
2571;DHT22;1295;51.130;6.732;2023-03-14T12:04:32;10.50;99.90
2571;DHT22;1295;51.130;6.732;2023-03-14T12:06:55;10.50;99.90
2571;DHT22;1295;51.130;6.732;2023-03-14T12:09:21;10.50;99.90
2571;DHT22;1295;51.130;6.732;2023-03-14T12:11:50;10.50;99.90
2571;DHT22;1295;51.130;6.732;2023-03-14T12:14:23;10.50;99.90
2571;DHT22;1295;51.130;6.732;2023-03-14T12:16:48;10.50;99.90
2571;DHT22;1295;51.130;6.732;2023-03-14T12:19:23;10.50;99.90
2571;DHT22;1295;51.130;6.732;2023-03-14T12:21:45;10.50;99.90
2571;DHT22;1295;51.130;6.732;2023-03-14T12:24:15;10.50;99.90
2571;DHT22;1295;51.130;6.732;2023-03-14T12:29:11;10.50;99.90
2571;DHT22;1295;51.130;6.732;2023-03-14T12:31:36;10.40;99.90
2571;DHT22;1295;51.130;6.732;2023-03-14T12:34:03;10.40;99.90
2571;DHT22;1295;51.130;6.732;2023-03-14T12:39:05;10.20;99.90
2571;DHT22;1295;51.130;6.732;2023-03-14T12:41:35;10.20;99.90
2571;DHT22;1295;51.130;6.732;2023-03-14T12:43:56;10.40;99.90
2571;DHT22;1295;51.130;6.732;2023-03-14T12:46:25;10.40;99.90
2571;DHT22;1295;51.130;6.732;2023-03-14T12:49:03;10.40;99.90
2571;DHT22;1295;51.130;6.732;2023-03-14T12:51:41;10.50;99.90
2571;DHT22;1295;51.130;6.732;2023-03-14T12:59:34;10.60;99.90
2571;DHT22;1295;51.130;6.732;2023-03-14T13:02:01;10.60;99.90
2571;DHT22;1295;51.130;6.732;2023-03-14T13:04:36;10.60;99.90
2571;DHT22;1295;51.130;6.732;2023-03-14T13:07:02;10.50;99.90
2571;DHT22;1295;51.130;6.732;2023-03-14T13:09:36;10.50;99.90
2571;DHT22;1295;51.130;6.732;2023-03-14T13:12:02;10.40;99.90
2571;DHT22;1295;51.130;6.732;2023-03-14T13:14:27;10.40;99.90
2571;DHT22;1295;51.130;6.732;2023-03-14T13:16:52;10.40;99.90
2571;DHT22;1295;51.130;6.732;2023-03-14T13:19:20;10.30;99.90
2571;DHT22;1295;51.130;6.732;2023-03-14T13:21:45;10.30;99.90
2571;DHT22;1295;51.130;6.732;2023-03-14T13:24:26;10.40;99.90
2571;DHT22;1295;51.130;6.732;2023-03-14T13:26:53;10.30;99.90
2571;DHT22;1295;51.130;6.732;2023-03-14T13:29:20;10.30;99.90
2571;DHT22;1295;51.130;6.732;2023-03-14T13:31:45;10.40;99.90
2571;DHT22;1295;51.130;6.732;2023-03-14T13:34:11;10.40;99.90
2571;DHT22;1295;51.130;6.732;2023-03-14T13:36:37;10.40;99.90
2571;DHT22;1295;51.130;6.732;2023-03-14T13:39:03;10.40;99.90
2571;DHT22;1295;51.130;6.732;2023-03-14T13:41:28;10.40;99.90
2571;DHT22;1295;51.130;6.732;2023-03-14T13:44:02;10.40;99.90
2571;DHT22;1295;51.130;6.732;2023-03-14T13:46:26;10.40;99.90
2571;DHT22;1295;51.130;6.732;2023-03-14T13:48:55;10.40;99.90
2571;DHT22;1295;51.130;6.732;2023-03-14T13:51:19;10.30;99.90
2571;DHT22;1295;51.130;6.732;2023-03-14T13:53:46;10.40;99.90
2571;DHT22;1295;51.130;6.732;2023-03-14T13:56:11;10.40;99.90
2571;DHT22;1295;51.130;6.732;2023-03-14T13:58:38;10.40;99.90
2571;DHT22;1295;51.130;6.732;2023-03-14T14:01:06;10.30;99.90
2571;DHT22;1295;51.130;6.732;2023-03-14T14:03:31;10.30;99.90
2571;DHT22;1295;51.130;6.732;2023-03-14T14:05:56;10.30;99.90
2571;DHT22;1295;51.130;6.732;2023-03-14T14:08:21;10.40;99.90
2571;DHT22;1295;51.130;6.732;2023-03-14T14:10:47;10.40;99.90
2571;DHT22;1295;51.130;6.732;2023-03-14T14:13:16;10.40;99.90
2571;DHT22;1295;51.130;6.732;2023-03-14T14:15:43;10.40;99.90
2571;DHT22;1295;51.130;6.732;2023-03-14T14:18:08;10.40;99.90
2571;DHT22;1295;51.130;6.732;2023-03-14T14:20:41;10.40;99.90
2571;DHT22;1295;51.130;6.732;2023-03-14T14:23:09;10.40;99.90
2571;DHT22;1295;51.130;6.732;2023-03-14T14:25:32;10.40;99.90
2571;DHT22;1295;51.130;6.732;2023-03-14T14:27:59;10.40;99.90
2571;DHT22;1295;51.130;6.732;2023-03-14T14:30:28;10.30;99.90
2571;DHT22;1295;51.130;6.732;2023-03-14T14:32:53;10.20;99.90
2571;DHT22;1295;51.130;6.732;2023-03-14T14:35:24;10.20;99.90
2571;DHT22;1295;51.130;6.732;2023-03-14T14:37:49;10.30;99.90
2571;DHT22;1295;51.130;6.732;2023-03-14T14:40:19;10.30;99.90
2571;DHT22;1295;51.130;6.732;2023-03-14T14:42:44;10.40;99.90
2571;DHT22;1295;51.130;6.732;2023-03-14T14:45:16;10.40;99.90
2571;DHT22;1295;51.130;6.732;2023-03-14T14:47:47;10.40;99.90
2571;DHT22;1295;51.130;6.732;2023-03-14T14:50:20;10.00;99.90
2571;DHT22;1295;51.130;6.732;2023-03-14T14:52:44;10.20;99.90
2571;DHT22;1295;51.130;6.732;2023-03-14T14:55:11;10.20;99.90
2571;DHT22;1295;51.130;6.732;2023-03-14T14:57:32;10.10;99.90
2571;DHT22;1295;51.130;6.732;2023-03-14T15:00:00;10.10;99.90
2571;DHT22;1295;51.130;6.732;2023-03-14T15:02:38;10.20;99.90
2571;DHT22;1295;51.130;6.732;2023-03-14T15:05:05;10.30;99.90
2571;DHT22;1295;51.130;6.732;2023-03-14T15:07:31;10.20;99.90
2571;DHT22;1295;51.130;6.732;2023-03-14T15:09:56;10.20;99.90
2571;DHT22;1295;51.130;6.732;2023-03-14T15:12:22;10.20;99.90
2571;DHT22;1295;51.130;6.732;2023-03-14T15:14:49;10.30;99.90
2571;DHT22;1295;51.130;6.732;2023-03-14T15:17:14;10.30;99.90
2571;DHT22;1295;51.130;6.732;2023-03-14T15:19:40;10.20;99.90
2571;DHT22;1295;51.130;6.732;2023-03-14T15:22:09;10.30;99.90
2571;DHT22;1295;51.130;6.732;2023-03-14T15:24:32;10.20;99.90
2571;DHT22;1295;51.130;6.732;2023-03-14T15:26:57;10.20;99.90
2571;DHT22;1295;51.130;6.732;2023-03-14T15:29:23;10.20;99.90
2571;DHT22;1295;51.130;6.732;2023-03-14T15:31:49;10.20;99.90
2571;DHT22;1295;51.130;6.732;2023-03-14T15:34:15;10.20;99.90
2571;DHT22;1295;51.130;6.732;2023-03-14T15:36:40;10.20;99.90
2571;DHT22;1295;51.130;6.732;2023-03-14T15:39:06;10.20;99.90
2571;DHT22;1295;51.130;6.732;2023-03-14T15:41:32;10.10;99.90
2571;DHT22;1295;51.130;6.732;2023-03-14T15:43:57;10.10;99.90
2571;DHT22;1295;51.130;6.732;2023-03-14T15:46:23;10.20;99.90
2571;DHT22;1295;51.130;6.732;2023-03-14T15:48:50;10.10;99.90
2571;DHT22;1295;51.130;6.732;2023-03-14T15:51:15;10.10;99.90
2571;DHT22;1295;51.130;6.732;2023-03-14T15:53:41;10.10;99.90
2571;DHT22;1295;51.130;6.732;2023-03-14T15:56:09;10.10;99.90
2571;DHT22;1295;51.130;6.732;2023-03-14T15:58:33;10.00;99.90
2571;DHT22;1295;51.130;6.732;2023-03-14T16:01:00;10.00;99.90
2571;DHT22;1295;51.130;6.732;2023-03-14T16:03:25;10.00;99.90
2571;DHT22;1295;51.130;6.732;2023-03-14T16:05:55;10.00;99.90
2571;DHT22;1295;51.130;6.732;2023-03-14T16:08:23;10.00;99.90
2571;DHT22;1295;51.130;6.732;2023-03-14T16:10:48;10.00;99.90
2571;DHT22;1295;51.130;6.732;2023-03-14T16:13:13;10.00;99.90
2571;DHT22;1295;51.130;6.732;2023-03-14T16:15:39;10.00;99.90
2571;DHT22;1295;51.130;6.732;2023-03-14T16:18:05;10.00;99.90
2571;DHT22;1295;51.130;6.732;2023-03-14T16:20:30;10.00;99.90
2571;DHT22;1295;51.130;6.732;2023-03-14T16:22:56;9.90;99.90
2571;DHT22;1295;51.130;6.732;2023-03-14T16:25:21;10.00;99.90